createdAt,value
2023-01-11T00:04:31.127Z,100467.59
2023-01-11T00:09:29.923Z,100459.06
2023-01-11T00:14:28.650Z,100456.13
2023-01-11T00:19:27.437Z,100450.13
2023-01-11T00:24:26.269Z,100435.19
2023-01-11T00:29:25.039Z,100425.69
2023-01-11T00:34:24.329Z,100404.72
2023-01-11T00:39:23.073Z,100388.25
2023-01-11T00:44:40.507Z,100378.88
2023-01-11T00:49:39.629Z,100378.19
2023-01-11T00:54:39.939Z,100385.50
2023-01-11T00:59:41.852Z,100385.31
2023-01-11T01:04:40.930Z,100366.34
2023-01-11T01:09:39.737Z,100358.00
2023-01-11T01:14:38.932Z,100338.13
2023-01-11T01:19:39.179Z,100345.69
2023-01-11T01:24:37.972Z,100340.09
2023-01-11T01:29:36.752Z,100339.59
2023-01-11T01:34:37.555Z,100328.88
2023-01-11T01:39:36.294Z,100306.88
2023-01-11T01:45:21.160Z,100310.31
2023-01-11T01:50:32.063Z,100314.63
2023-01-11T01:55:35.443Z,100308.22
2023-01-11T02:00:37.870Z,100303.84
2023-01-11T02:05:36.655Z,100299.91
2023-01-11T02:10:36.485Z,100286.88
2023-01-11T02:15:36.133Z,100270.16
2023-01-11T02:20:34.950Z,100261.66
2023-01-11T02:26:01.610Z,100265.19
2023-01-11T02:31:39.544Z,100263.16
2023-01-11T02:37:07.563Z,100250.81
2023-01-11T02:42:40.043Z,100237.44
2023-01-11T02:47:49.551Z,100230.06
2023-01-11T02:53:00.406Z,100222.66
2023-01-11T02:58:02.921Z,100223.50
2023-01-11T03:03:09.809Z,100212.97
2023-01-11T03:08:30.437Z,100212.56
2023-01-11T03:13:56.572Z,100215.91
2023-01-11T03:19:16.356Z,100205.13
2023-01-11T03:24:24.156Z,100196.72
2023-01-11T03:29:29.637Z,100173.19
2023-01-11T03:34:56.654Z,100161.03
2023-01-11T03:40:04.498Z,100154.25
2023-01-11T03:45:04.633Z,100156.94
2023-01-11T03:50:06.900Z,100155.91
2023-01-11T03:55:09.863Z,100148.44
2023-01-11T04:00:09.729Z,100136.28
2023-01-11T04:05:10.601Z,100138.53
2023-01-11T04:10:10.184Z,100127.63
2023-01-11T04:15:10.017Z,100126.34
2023-01-11T04:20:10.398Z,100123.00
2023-01-11T04:25:09.828Z,100116.44
2023-01-11T04:30:10.765Z,100110.91
2023-01-11T04:35:09.678Z,100109.47
2023-01-11T04:40:09.407Z,100116.59
2023-01-11T04:45:08.784Z,100110.03
2023-01-11T04:50:08.655Z,100092.44
2023-01-11T04:55:08.141Z,100080.44
2023-01-11T05:00:10.777Z,100084.63
2023-01-11T05:05:10.536Z,100077.28
2023-01-11T05:10:09.839Z,100083.38
2023-01-11T05:15:09.445Z,100072.72
2023-01-11T05:20:09.021Z,100071.81
2023-01-11T05:25:08.280Z,100068.81
2023-01-11T05:30:07.974Z,100075.19
2023-01-11T05:35:10.113Z,100063.44
2023-01-11T05:40:09.473Z,100062.59
2023-01-11T05:45:28.431Z,100058.34
2023-01-11T05:50:27.251Z,100062.50
2023-01-11T05:55:25.989Z,100054.00
2023-01-11T06:00:24.838Z,100049.91
2023-01-11T06:05:23.634Z,100050.63
2023-01-11T06:10:22.427Z,100057.66
2023-01-11T06:15:21.152Z,100058.22
2023-01-11T06:20:19.972Z,100060.16
2023-01-11T06:25:18.787Z,100047.78
2023-01-11T06:30:18.001Z,100046.91
2023-01-11T06:35:16.844Z,100038.97
2023-01-11T06:40:15.621Z,100041.81
2023-01-11T06:45:14.437Z,100041.88
2023-01-11T06:50:13.226Z,100027.38
2023-01-11T06:55:12.084Z,100013.25
2023-01-11T07:00:11.532Z,100027.53
2023-01-11T07:05:10.984Z,100036.53
2023-01-11T07:10:12.577Z,100037.19
2023-01-11T07:15:12.054Z,100045.53
2023-01-11T07:20:11.727Z,100043.00
2023-01-11T07:25:10.471Z,100050.78
2023-01-11T07:30:10.004Z,100052.28
2023-01-11T07:35:09.488Z,100046.50
2023-01-11T07:40:08.954Z,100050.41
2023-01-11T07:45:08.374Z,100032.28
2023-01-11T07:50:07.918Z,100048.63
2023-01-11T07:55:06.931Z,100047.84
2023-01-11T08:00:06.437Z,100033.34
2023-01-11T08:05:10.500Z,100034.06
2023-01-11T08:10:09.799Z,100038.69
2023-01-11T08:15:10.512Z,100034.34
2023-01-11T08:20:10.006Z,100032.34
2023-01-11T08:25:09.418Z,100031.19
2023-01-11T08:30:09.122Z,100037.84
2023-01-11T08:35:08.426Z,100033.63
2023-01-11T08:40:08.019Z,100043.41
2023-01-11T08:45:07.501Z,100033.72
2023-01-11T08:50:08.300Z,100025.09
2023-01-11T08:55:08.190Z,100021.75
2023-01-11T09:00:08.621Z,100015.66
2023-01-11T09:05:07.855Z,100014.06
2023-01-11T09:10:07.108Z,100018.69
2023-01-11T09:15:06.631Z,100006.28
2023-01-11T09:20:06.010Z,100002.16
2023-01-11T09:25:05.685Z,99992.41
2023-01-11T09:30:05.594Z,99997.81
2023-01-11T09:35:05.305Z,99996.53
2023-01-11T09:40:04.572Z,99991.16
2023-01-11T09:45:15.578Z,99984.06
2023-01-11T09:50:17.380Z,99981.84
2023-01-11T09:55:23.278Z,99975.53
2023-01-11T10:00:26.604Z,99971.75
2023-01-11T10:05:28.603Z,99975.59
2023-01-11T10:18:28.731Z,99953.50
2023-01-11T10:21:42.056Z,99959.25
2023-01-11T10:26:42.091Z,99941.47
2023-01-11T10:31:45.954Z,99939.81
2023-01-11T10:37:05.099Z,99938.66
2023-01-11T10:43:03.840Z,99935.38
2023-01-11T10:48:23.764Z,99933.25
2023-01-11T10:53:28.515Z,99922.03
2023-01-11T10:58:46.497Z,99918.00
2023-01-11T11:03:51.375Z,99916.59
2023-01-11T11:09:09.345Z,99924.13
2023-01-11T11:14:30.186Z,99908.28
2023-01-11T11:19:32.979Z,99911.59
2023-01-11T11:24:38.576Z,99910.25
2023-01-11T11:29:43.162Z,99905.56
2023-01-11T11:34:48.527Z,99893.84
2023-01-11T11:39:50.200Z,99885.38
2023-01-11T11:45:07.347Z,99884.75
2023-01-11T11:50:27.408Z,99877.47
2023-01-11T11:55:35.879Z,99864.31
2023-01-11T12:00:41.749Z,99855.50
2023-01-11T12:05:58.378Z,99836.75
2023-01-11T12:11:05.334Z,99838.72
2023-01-11T12:16:07.497Z,99833.31
2023-01-11T12:21:19.241Z,99833.41
2023-01-11T12:27:02.354Z,99821.75
2023-01-11T12:32:50.911Z,99825.13
2023-01-11T12:38:34.708Z,99808.97
2023-01-11T12:44:27.526Z,99814.25
2023-01-11T12:49:38.396Z,99809.34
2023-01-11T12:54:39.865Z,99796.75
2023-01-11T12:59:57.482Z,99793.47
2023-01-11T13:05:14.555Z,99791.09
2023-01-11T13:10:34.856Z,99790.81
2023-01-11T13:16:17.133Z,99794.47
2023-01-11T13:21:34.277Z,99796.28
2023-01-11T13:26:40.191Z,99794.25
2023-01-11T13:31:40.956Z,99796.75
2023-01-11T13:36:45.746Z,99789.75
2023-01-11T13:41:58.152Z,99792.28
2023-01-11T13:47:35.408Z,99806.66
2023-01-11T13:52:49.580Z,99797.84
2023-01-11T13:58:29.134Z,99800.41
2023-01-11T14:03:45.141Z,99806.38
2023-01-11T14:09:28.403Z,99799.81
2023-01-11T14:14:37.268Z,99810.47
2023-01-11T14:20:01.169Z,99798.91
2023-01-11T14:25:15.831Z,99816.16
2023-01-11T14:30:32.509Z,99806.56
2023-01-11T14:35:46.267Z,99814.06
2023-01-11T14:41:01.779Z,99819.91
2023-01-11T14:46:09.574Z,99803.78
2023-01-11T14:51:35.025Z,99807.78
2023-01-11T14:56:42.780Z,99798.75
2023-01-11T15:02:03.501Z,99804.25
2023-01-11T15:07:21.225Z,99812.13
2023-01-11T15:12:23.193Z,99817.84
2023-01-11T15:17:45.383Z,99817.06
2023-01-11T15:22:45.317Z,99817.69
2023-01-11T15:27:44.029Z,99826.44
2023-01-11T15:32:43.930Z,99835.03
2023-01-11T15:38:33.928Z,99831.06
2023-01-11T15:43:55.104Z,99828.72
2023-01-11T15:48:56.783Z,99840.78
2023-01-11T15:53:58.202Z,99842.16
2023-01-11T15:59:18.241Z,99838.94
2023-01-11T16:04:40.684Z,99842.13
2023-01-11T16:09:58.074Z,99846.81
2023-01-11T16:15:16.167Z,99852.41
2023-01-11T16:20:21.033Z,99850.38
2023-01-11T16:25:21.359Z,99860.13
2023-01-11T16:30:20.486Z,99861.53
2023-01-11T16:35:21.213Z,99873.72
2023-01-11T16:40:29.552Z,99874.34
2023-01-11T16:45:49.394Z,99882.94
2023-01-11T16:51:00.797Z,99885.53
2023-01-11T16:56:05.172Z,99891.53
2023-01-11T17:01:11.453Z,99903.53
2023-01-11T17:06:10.209Z,99910.03
2023-01-11T17:11:17.463Z,99906.38
2023-01-11T17:16:17.127Z,99912.50
2023-01-11T17:21:23.346Z,99919.22
2023-01-11T17:26:29.069Z,99916.25
2023-01-11T17:31:32.324Z,99931.66
2023-01-11T17:36:32.420Z,99923.22
2023-01-11T17:41:52.861Z,99932.56
2023-01-11T17:46:51.700Z,99945.03
2023-01-11T17:51:50.683Z,99943.28
2023-01-11T17:57:00.841Z,99957.97
2023-01-11T18:02:10.809Z,99961.97
2023-01-11T18:07:17.705Z,99972.34
2023-01-11T18:12:19.401Z,99970.53
2023-01-11T18:17:30.713Z,99967.38
2023-01-11T18:22:31.099Z,99965.69
2023-01-11T18:27:34.952Z,99970.53
2023-01-11T18:32:42.529Z,99988.94
2023-01-11T18:37:41.264Z,99987.47
2023-01-11T18:42:40.655Z,99993.16
2023-01-11T18:47:39.719Z,99991.59
2023-01-11T18:52:39.012Z,99997.13
2023-01-11T18:57:37.832Z,99993.75
2023-01-11T19:02:42.936Z,99999.06
2023-01-11T19:07:42.230Z,100006.72
2023-01-11T19:12:41.325Z,100005.22
2023-01-11T19:17:40.158Z,100006.06
2023-01-11T19:22:38.968Z,100018.75
2023-01-11T19:27:38.079Z,100037.06
2023-01-11T19:32:36.867Z,100045.03
2023-01-11T19:37:37.676Z,100058.13
2023-01-11T19:42:38.284Z,100059.16
2023-01-11T19:47:37.122Z,100069.41
2023-01-11T19:52:35.916Z,100071.81
2023-01-11T19:57:34.737Z,100068.44
2023-01-11T20:02:33.624Z,100081.00
2023-01-11T20:07:33.329Z,100094.28
2023-01-11T20:12:32.085Z,100105.78
2023-01-11T20:17:30.799Z,100108.84
2023-01-11T20:22:29.677Z,100104.03
2023-01-11T20:27:28.482Z,100111.91
2023-01-11T20:32:41.449Z,100114.94
2023-01-11T20:37:40.858Z,100121.66
2023-01-11T20:42:39.609Z,100125.91
2023-01-11T20:47:38.864Z,100129.88
2023-01-11T20:52:37.601Z,100133.78
2023-01-11T20:57:36.436Z,100138.38
2023-01-11T21:02:35.821Z,100134.84
2023-01-11T21:07:35.001Z,100140.69
2023-01-11T21:12:33.769Z,100145.66
2023-01-11T21:17:32.544Z,100154.19
2023-01-11T21:22:31.312Z,100157.16
2023-01-11T21:27:30.285Z,100163.03
2023-01-11T21:32:28.999Z,100162.06
2023-01-11T21:37:27.779Z,100165.34
2023-01-11T21:42:26.623Z,100161.03
2023-01-11T21:47:25.404Z,100171.22
2023-01-11T21:52:24.127Z,100187.28
2023-01-11T21:57:22.852Z,100180.59
2023-01-11T22:02:21.586Z,100195.63
2023-01-11T22:07:20.310Z,100188.56
2023-01-11T22:12:19.112Z,100188.59
2023-01-11T22:17:18.032Z,100183.63
2023-01-11T22:22:16.780Z,100191.16
2023-01-11T22:27:15.611Z,100192.09
2023-01-11T22:32:14.440Z,100209.69
2023-01-11T22:37:13.186Z,100213.88
2023-01-11T22:42:11.920Z,100201.88
2023-01-11T22:47:10.666Z,100224.47
2023-01-11T22:52:09.449Z,100225.94
2023-01-11T22:57:08.193Z,100227.97
2023-01-11T23:02:06.952Z,100220.44
2023-01-11T23:07:05.705Z,100227.38
2023-01-11T23:12:24.739Z,100224.38
2023-01-11T23:17:23.460Z,100217.78
2023-01-11T23:22:22.392Z,100221.47
2023-01-11T23:27:21.204Z,100235.75
2023-01-11T23:32:20.001Z,100235.63
2023-01-11T23:37:18.709Z,100225.09
2023-01-11T23:42:26.724Z,100228.97
2023-01-11T23:47:29.437Z,100225.97
2023-01-11T23:52:30.844Z,100223.13
2023-01-11T23:57:29.544Z,100225.25
